Terminal Aerodrome Forecast
Issued by NWS Cleveland, OH

Home | Current Version | Previous Version | Graphics & Text | Print | Product List | Glossary On
Versions: 1 2 3 4 5 6 7 8 9 10 11 12 13 14 15
174
FTUS41 KCLE 260526
TAFTOL
TAF
KTOL 260526Z 2606/2706 16005KT P6SM SCT080 BKN250
     FM260700 18005KT P6SM VCSH SCT050 BKN080
     FM261200 20008KT P6SM SCT050 BKN080
     FM270200 18004KT P6SM SCT050=

USA.gov is the U.S. government's official web portal to all federal, state and local government web resources and services.